Etusivu
METAR-TAF:

METAR-TAF

Lentoasemat :

Hassi R'Mel, Algeria

Leveyspiiri: 32-55-48N, Pituuspiiri: 003-18-44E, korkeus merenpinnasta: 774 m

Tämänhetkinen sää

Tämä raportti tehtiin 4 tuntia ja 51 minuuttia sitten, kello 18.00 UTC
tyyntä
Lämpötila 30°C
Kosteus 25%
Ilmanpaine 1016 hPa
Näkyvyys 10 km tai enemmän
ei pilviä alle 1500 m:ssä eikä cumulonimbus-pilviä

METAR: DAFH 071800Z 00000KT CAVOK 30/08 Q1016

Aika: 23:51 (22:51 UTC)

Sääennuste

Tämä raportti tehtiin 5 tuntia ja 51 minuuttia sitten, kello 17.00 UTC
Ennuste voimassa 07. päivästä klo 18 UTC - 08. päivään klo 03 UTC
Tuuli 8 kn etelästä
Näkyvyys 10 km tai enemmän
ei pilviä alle 1500 m:ssä eikä cumulonimbus-pilviä

TAF: DAFH 071700Z 0718/0803 18008KT CAVOK

Säähavainnot ja -ennusteet yli 4000 lentoasemalta (METAR- ja TAF-raportit).

Käytössä olevat sääasemat on merkitty karttaan keltaisilla ja punaisilla pisteillä.

Aseta hiiri pisteen päälle nähdäksesi sääaseman nimen.

Klikkaa sitten nähdäksesi säähavainnot ja -ennusteet.

Kartan vaihtaminen: klikkaa mustalla rastilla varustettuja vihreitä pisteitä, niin voit zoomata sisään; viivalla varustettua vihreää pistettä, niin voit zoomata ulos tai vihreitä nuolia, niin pääset viereisille kartoille.


METAR-TAF: